Time;durP1;ratioP1;P1;durP2;ratioP2;P2;SDS_P1;SDS_P2;PMS_P1;PMS_P2;Temp;Humidity;BMP_temperature;BMP_pressure;BME280_temperature;BME280_humidity;BME280_pressure;Samples;Min_cycle;Max_cycle;Signal;HPM_P1;HPM_P2
2024/03/16 00:00:09;;;;;;;16.57;3.77;;;;;;;13.33;89.93;101018.00;5078233;28;20064;-62
2024/03/16 00:02:38;;;;;;;16.92;2.88;;;;;;;13.43;89.44;101020.44;5082309;28;20055;-61
2024/03/16 00:05:06;;;;;;;14.38;2.50;;;;;;;13.35;88.47;101015.69;5081997;28;20051;-62
2024/03/16 00:07:33;;;;;;;15.23;2.65;;;;;;;13.29;87.60;101030.03;5084495;28;20085;-60
2024/03/16 00:10:06;;;;;;;11.57;2.10;;;;;;;13.23;87.90;101034.09;5064570;28;20063;-62
2024/03/16 00:12:36;;;;;;;12.43;2.78;;;;;;;13.13;85.88;101029.69;5087788;28;20048;-64
2024/03/16 00:15:04;;;;;;;10.63;1.58;;;;;;;13.25;83.74;101031.81;5104783;28;20411;-62
2024/03/16 00:17:32;;;;;;;9.75;1.90;;;;;;;13.26;84.35;101028.72;5087674;28;20052;-59
2024/03/16 00:19:59;;;;;;;11.20;1.75;;;;;;;13.27;83.85;101024.00;5062604;28;20048;-61
2024/03/16 00:22:26;;;;;;;10.07;1.55;;;;;;;13.50;83.80;101036.56;5081935;28;20062;-61
2024/03/16 00:24:54;;;;;;;9.68;2.08;;;;;;;13.67;81.94;101028.25;5075871;28;20056;-63
2024/03/16 00:27:21;;;;;;;8.15;1.85;;;;;;;13.54;81.73;101035.59;5079507;28;20056;-62
2024/03/16 00:29:49;;;;;;;10.60;1.92;;;;;;;13.78;81.72;101039.81;5072571;28;20056;-62
2024/03/16 00:32:16;;;;;;;10.93;1.70;;;;;;;13.89;80.96;101041.09;5086252;28;20048;-63
2024/03/16 00:34:44;;;;;;;9.68;1.83;;;;;;;13.59;80.58;101037.38;5092800;28;20301;-63
2024/03/16 00:37:12;;;;;;;12.55;1.73;;;;;;;13.54;81.44;101037.53;5087481;28;20078;-61
2024/03/16 00:39:42;;;;;;;9.15;1.65;;;;;;;13.32;82.69;101032.97;5089242;28;20070;-60
2024/03/16 00:42:12;;;;;;;6.28;1.08;;;;;;;13.71;81.44;101045.00;5088893;28;20049;-61
2024/03/16 00:44:41;;;;;;;5.10;0.85;;;;;;;13.61;80.54;101053.66;5086545;28;20056;-61
2024/03/16 00:47:09;;;;;;;13.32;1.60;;;;;;;13.45;81.25;101056.91;5089617;28;20056;-61
2024/03/16 00:49:37;;;;;;;9.95;1.80;;;;;;;13.50;81.61;101065.06;5088016;28;20755;-61
2024/03/16 00:52:04;;;;;;;10.38;1.70;;;;;;;13.37;82.50;101067.97;5088298;28;20541;-61
2024/03/16 00:54:31;;;;;;;7.78;1.02;;;;;;;13.39;82.38;101049.06;5088733;28;20055;-61
2024/03/16 00:56:59;;;;;;;7.20;1.30;;;;;;;13.61;81.35;101060.00;5081003;28;20060;-61
2024/03/16 00:59:28;;;;;;;5.57;0.98;;;;;;;13.60;80.71;101071.41;5067813;28;20056;-62
2024/03/16 01:01:55;;;;;;;5.03;0.73;;;;;;;13.42;80.92;101085.22;5088985;28;20809;-61
2024/03/16 01:04:22;;;;;;;6.45;1.10;;;;;;;13.60;80.20;101071.41;5080677;28;20048;-61
2024/03/16 01:06:50;;;;;;;4.40;0.70;;;;;;;13.61;78.42;101084.09;5089666;28;20056;-60
2024/03/16 01:09:17;;;;;;;4.07;0.80;;;;;;;13.46;79.96;101072.34;5088841;28;20048;-62
2024/03/16 01:11:44;;;;;;;4.47;0.85;;;;;;;13.40;79.16;101078.38;5089313;28;20051;-61
2024/03/16 01:14:11;;;;;;;2.75;0.50;;;;;;;13.25;79.08;101087.94;5088313;28;20056;-61
2024/03/16 01:16:39;;;;;;;2.53;0.90;;;;;;;13.34;79.56;101087.97;5089001;28;20052;-61
2024/03/16 01:19:06;;;;;;;1.77;0.55;;;;;;;13.32;79.50;101088.28;5088869;28;20063;-60
2024/03/16 01:21:33;;;;;;;3.47;0.70;;;;;;;13.37;78.39;101090.91;5087028;28;20059;-61
2024/03/16 01:24:02;;;;;;;3.58;0.65;;;;;;;13.62;78.39;101086.53;5088196;28;20048;-61
2024/03/16 01:26:29;;;;;;;4.40;0.88;;;;;;;13.43;78.27;101088.78;5088130;28;20063;-61
2024/03/16 01:28:59;;;;;;;1.90;0.55;;;;;;;13.44;78.44;101102.31;5089148;28;20108;-61
2024/03/16 01:31:26;;;;;;;2.92;0.40;;;;;;;13.27;79.00;101093.97;5084291;28;20060;-63
2024/03/16 01:33:53;;;;;;;2.08;0.40;;;;;;;13.52;78.59;101104.28;5089125;28;20063;-61
2024/03/16 01:36:21;;;;;;;4.05;0.40;;;;;;;13.58;78.14;101108.50;5088511;28;20391;-60
2024/03/16 01:38:49;;;;;;;3.15;0.50;;;;;;;13.56;78.46;101105.25;5088863;28;20064;-62
2024/03/16 01:41:16;;;;;;;2.67;0.60;;;;;;;13.52;78.88;101117.31;5088589;28;20048;-60
2024/03/16 01:43:47;;;;;;;4.15;0.63;;;;;;;13.62;78.21;101116.16;5084877;28;20072;-61
2024/03/16 01:46:15;;;;;;;1.02;0.38;;;;;;;13.59;79.35;101120.41;5083877;28;20053;-61
2024/03/16 01:48:43;;;;;;;3.58;0.68;;;;;;;13.51;79.28;101126.75;5050377;28;20056;-61
2024/03/16 01:51:10;;;;;;;4.00;0.52;;;;;;;13.26;80.24;101122.78;5067845;28;20060;-60
2024/03/16 01:53:38;;;;;;;3.20;0.50;;;;;;;13.32;80.38;101127.03;5067844;28;20056;-60
2024/03/16 01:56:06;;;;;;;3.00;0.43;;;;;;;13.21;81.19;101133.19;5068059;28;20056;-60
2024/03/16 01:58:41;;;;;;;1.67;0.38;;;;;;;13.03;82.76;101135.06;5068299;28;20657;-61
2024/03/16 02:01:08;;;;;;;2.75;0.35;;;;;;;13.08;82.12;101128.56;5068199;28;20048;-61
2024/03/16 02:03:36;;;;;;;3.30;0.73;;;;;;;13.33;82.37;101133.38;5070021;28;20056;-62
2024/03/16 02:06:03;;;;;;;2.72;0.52;;;;;;;13.26;81.09;101122.78;5086673;28;20055;-62
2024/03/16 02:08:30;;;;;;;5.15;0.73;;;;;;;13.15;82.12;101139.97;5088347;28;20822;-61
2024/03/16 02:10:58;;;;;;;3.53;1.10;;;;;;;13.11;83.17;101141.78;5087988;28;20058;-64
2024/03/16 02:13:25;;;;;;;2.88;0.65;;;;;;;12.97;82.84;101133.53;5088201;28;20062;-60
2024/03/16 02:15:52;;;;;;;3.55;0.50;;;;;;;13.04;83.43;101136.69;5087957;28;20071;-61
2024/03/16 02:18:19;;;;;;;1.48;0.40;;;;;;;13.25;82.49;101150.78;5068846;28;20052;-62
2024/03/16 02:20:47;;;;;;;3.78;0.60;;;;;;;12.91;82.80;101137.59;5086082;28;20044;-60
2024/03/16 02:23:15;;;;;;;4.85;0.73;;;;;;;12.93;84.53;101146.41;5087157;28;20048;-61
2024/03/16 02:25:43;;;;;;;4.00;0.70;;;;;;;13.06;83.56;101147.44;5087309;28;20051;-60
2024/03/16 02:28:11;;;;;;;4.05;0.60;;;;;;;13.16;83.76;101144.41;5068130;28;20060;-60
2024/03/16 02:30:38;;;;;;;5.28;0.50;;;;;;;13.08;84.23;101140.47;5049590;28;20048;-61
2024/03/16 02:33:09;;;;;;;7.13;0.60;;;;;;;13.01;83.64;101153.06;5082732;28;20056;-61
2024/03/16 02:35:38;;;;;;;2.28;0.40;;;;;;;13.22;83.83;101155.00;5085313;28;20071;-61
2024/03/16 02:38:05;;;;;;;2.50;0.73;;;;;;;13.15;84.31;101157.41;5070287;28;20144;-61
2024/03/16 02:40:32;;;;;;;4.05;0.63;;;;;;;13.10;82.84;101162.25;5067409;28;20396;-60
2024/03/16 02:42:59;;;;;;;1.90;0.40;;;;;;;12.92;84.59;101161.34;5070737;28;20051;-60
2024/03/16 02:45:27;;;;;;;1.92;0.50;;;;;;;12.87;85.09;101171.72;5087412;28;20075;-62
2024/03/16 02:47:55;;;;;;;1.35;0.40;;;;;;;12.99;83.90;101163.66;5087624;28;20262;-61
2024/03/16 02:50:22;;;;;;;1.67;0.40;;;;;;;12.84;84.26;101161.28;5085652;28;20189;-61
2024/03/16 02:52:49;;;;;;;2.08;0.63;;;;;;;12.72;85.16;101167.41;5087495;28;20555;-61
2024/03/16 02:55:16;;;;;;;2.45;0.40;;;;;;;12.85;84.60;101172.03;5086026;28;20055;-61
2024/03/16 02:57:44;;;;;;;2.92;0.50;;;;;;;12.81;85.06;101171.06;5087508;28;20067;-61
2024/03/16 03:00:12;;;;;;;2.72;0.70;;;;;;;13.11;83.71;101180.50;5069497;28;20056;-60
2024/03/16 03:02:39;;;;;;;3.33;0.50;;;;;;;12.77;84.81;101178.34;5087217;28;20059;-61
2024/03/16 03:05:10;;;;;;;2.53;0.40;;;;;;;12.78;85.53;101182.72;5085981;28;20063;-60
2024/03/16 03:07:38;;;;;;;1.40;0.40;;;;;;;12.88;86.30;101192.72;5085705;28;20060;-62
2024/03/16 03:10:08;;;;;;;3.38;0.50;;;;;;;12.73;86.12;101196.69;5087742;28;20078;-60
2024/03/16 03:12:36;;;;;;;3.03;0.75;;;;;;;12.73;86.69;101201.38;5087182;28;20055;-60
2024/03/16 03:15:04;;;;;;;2.30;0.40;;;;;;;12.79;86.12;101192.66;5087779;28;20090;-61
2024/03/16 03:17:31;;;;;;;3.42;0.32;;;;;;;12.85;85.49;101199.69;5085073;28;20060;-61
2024/03/16 03:19:59;;;;;;;1.77;0.40;;;;;;;12.87;84.88;101197.41;5087447;28;20063;-60
2024/03/16 03:22:26;;;;;;;1.58;0.40;;;;;;;12.96;84.91;101203.00;5086805;28;20059;-62
2024/03/16 03:24:54;;;;;;;1.40;0.45;;;;;;;13.02;84.47;101197.03;5085030;28;20059;-61
2024/03/16 03:27:21;;;;;;;1.23;0.35;;;;;;;12.81;85.03;101207.00;5065582;28;20057;-60
2024/03/16 03:29:48;;;;;;;2.38;0.60;;;;;;;12.75;86.18;101207.41;5067098;28;20064;-61
2024/03/16 03:32:16;;;;;;;2.13;0.47;;;;;;;12.81;86.67;101209.75;5067525;28;20067;-60
2024/03/16 03:34:43;;;;;;;5.45;0.60;;;;;;;13.08;85.43;101206.00;5067939;28;20044;-60
2024/03/16 03:37:12;;;;;;;1.95;0.50;;;;;;;13.19;84.14;101212.91;5064584;28;20063;-61
2024/03/16 03:39:39;;;;;;;2.70;0.60;;;;;;;13.08;85.25;101222.59;5069357;28;20955;-61
2024/03/16 03:42:07;;;;;;;1.38;0.35;;;;;;;12.95;86.66;101229.84;5086884;28;20048;-61
2024/03/16 03:44:39;;;;;;;4.32;0.60;;;;;;;12.88;87.60;101231.41;5086976;28;20064;-59
2024/03/16 03:47:07;;;;;;;1.85;0.43;;;;;;;12.65;88.64;101227.84;5087630;28;20055;-61
2024/03/16 03:49:40;;;;;;;1.27;0.43;;;;;;;12.44;89.87;101229.50;5086632;28;20059;-62
2024/03/16 03:52:07;;;;;;;1.83;0.60;;;;;;;12.62;89.45;101233.19;5085612;28;20056;-63
2024/03/16 03:54:34;;;;;;;1.73;0.47;;;;;;;12.74;88.93;101223.22;5080197;28;20063;-61
2024/03/16 03:57:03;;;;;;;3.28;0.63;;;;;;;12.61;89.17;101239.84;5081665;28;20044;-59
2024/03/16 03:59:31;;;;;;;3.45;0.65;;;;;;;12.55;88.64;101241.09;5088080;28;20056;-61
2024/03/16 04:01:58;;;;;;;3.15;0.55;;;;;;;12.48;90.04;101249.84;5088362;28;20063;-61
2024/03/16 04:04:26;;;;;;;1.45;0.38;;;;;;;12.87;89.27;101249.94;5088749;28;20078;-60
2024/03/16 04:06:53;;;;;;;3.42;0.70;;;;;;;12.85;87.36;101251.41;5090562;28;20562;-62
2024/03/16 04:09:21;;;;;;;2.80;0.60;;;;;;;12.56;88.33;101256.53;5090708;28;20062;-61
2024/03/16 04:11:48;;;;;;;3.58;0.32;;;;;;;12.62;90.30;101258.91;5090404;28;20059;-61
2024/03/16 04:14:16;;;;;;;4.63;0.60;;;;;;;12.48;89.40;101264.44;5090445;28;20048;-60
2024/03/16 04:16:43;;;;;;;4.50;0.50;;;;;;;12.38;90.99;101264.69;5088926;28;20059;-59
2024/03/16 04:19:10;;;;;;;1.70;0.40;;;;;;;12.50;90.32;101264.13;5081991;28;20052;-61
2024/03/16 04:21:38;;;;;;;1.63;0.30;;;;;;;12.24;92.05;101261.16;5078137;28;20675;-61
2024/03/16 04:24:06;;;;;;;1.95;0.30;;;;;;;12.61;91.24;101257.25;5105725;28;20052;-61
2024/03/16 04:26:33;;;;;;;1.00;0.30;;;;;;;12.70;89.67;101257.31;5090589;28;20665;-61
2024/03/16 04:29:01;;;;;;;1.83;0.38;;;;;;;12.85;89.07;101268.00;5088671;28;20052;-65
2024/03/16 04:31:28;;;;;;;1.65;0.32;;;;;;;12.84;89.08;101269.13;5089867;28;20052;-61
2024/03/16 04:33:55;;;;;;;2.40;0.40;;;;;;;12.96;88.65;101272.94;5084013;28;20044;-61
2024/03/16 04:36:22;;;;;;;0.40;0.20;;;;;;;12.96;87.08;101274.88;5068060;28;20056;-61
2024/03/16 04:38:50;;;;;;;1.58;0.30;;;;;;;12.75;87.73;101282.06;5067076;28;20900;-61
2024/03/16 04:41:19;;;;;;;1.85;0.40;;;;;;;12.23;90.64;101286.34;5068323;28;20064;-61
2024/03/16 04:43:47;;;;;;;3.53;0.63;;;;;;;12.33;91.42;101300.75;5078950;28;20087;-61
2024/03/16 04:46:14;;;;;;;1.45;0.30;;;;;;;12.50;91.32;101291.78;5090317;28;20067;-61
2024/03/16 04:48:42;;;;;;;1.27;0.32;;;;;;;12.29;92.23;101296.16;5089875;28;20047;-61
2024/03/16 04:51:09;;;;;;;3.25;0.43;;;;;;;12.62;90.88;101303.13;5088464;28;20056;-61
2024/03/16 04:53:36;;;;;;;1.08;0.25;;;;;;;12.68;89.73;101306.56;5089490;28;20070;-61
2024/03/16 04:56:04;;;;;;;2.40;0.30;;;;;;;12.67;90.29;101313.22;5105464;28;20044;-61
2024/03/16 04:58:31;;;;;;;3.05;0.40;;;;;;;12.40;91.52;101309.41;5089757;28;20048;-60
2024/03/16 05:00:58;;;;;;;3.50;0.73;;;;;;;12.20;92.26;101306.31;5089906;28;20056;-61
2024/03/16 05:03:26;;;;;;;1.52;0.30;;;;;;;12.26;93.24;101305.03;5089712;28;20048;-61
2024/03/16 05:05:54;;;;;;;2.03;0.35;;;;;;;12.54;92.50;101312.13;5087654;28;20483;-61
2024/03/16 05:08:21;;;;;;;3.03;0.57;;;;;;;12.59;92.79;101311.22;5088378;28;20051;-61
2024/03/16 05:10:51;;;;;;;1.20;0.50;;;;;;;12.67;92.86;101325.09;5087536;28;20067;-61
2024/03/16 05:13:19;;;;;;;2.20;0.50;;;;;;;12.78;91.33;101323.72;5089125;28;20055;-60
2024/03/16 05:15:46;;;;;;;0.80;0.30;;;;;;;12.67;91.62;101321.50;5084565;28;20059;-61
2024/03/16 05:18:14;;;;;;;1.25;0.30;;;;;;;12.64;92.47;101334.00;5090067;28;20514;-61
2024/03/16 05:20:41;;;;;;;4.80;0.55;;;;;;;12.67;92.75;101341.69;5089365;28;20059;-60
2024/03/16 05:23:09;;;;;;;1.08;0.30;;;;;;;12.70;93.11;101348.53;5089673;28;20056;-61
2024/03/16 05:25:37;;;;;;;1.30;0.30;;;;;;;12.51;92.83;101353.38;5087442;28;20048;-60
2024/03/16 05:28:04;;;;;;;4.85;0.70;;;;;;;12.66;92.79;101364.91;5087381;28;20066;-60
2024/03/16 05:30:32;;;;;;;2.03;0.40;;;;;;;12.60;92.78;101363.41;5087562;28;20478;-61
2024/03/16 05:32:59;;;;;;;2.33;0.55;;;;;;;12.56;93.43;101367.09;5088599;28;20055;-61
2024/03/16 05:35:28;;;;;;;4.50;0.50;;;;;;;12.25;96.92;101372.47;5048607;28;20696;-61
2024/03/16 05:37:56;;;;;;;0.30;0.30;;;;;;;12.20;98.60;101362.34;5068489;28;20299;-61
2024/03/16 05:40:24;;;;;;;2.15;0.40;;;;;;;11.96;100.00;101369.22;5083882;28;20290;-60
2024/03/16 05:42:51;;;;;;;2.08;0.30;;;;;;;11.80;100.00;101365.13;5070293;28;20044;-60
2024/03/16 05:45:19;;;;;;;3.47;0.43;;;;;;;12.10;100.00;101364.53;5088578;28;20067;-61
2024/03/16 05:47:46;;;;;;;1.55;0.20;;;;;;;12.14;100.00;101362.75;5069808;28;20067;-61
2024/03/16 05:50:13;;;;;;;4.18;0.40;;;;;;;12.01;99.47;101363.59;5086806;28;20059;-62
2024/03/16 05:52:41;;;;;;;3.78;0.50;;;;;;;12.07;99.83;101371.47;5088360;28;20059;-61
2024/03/16 05:55:17;;;;;;;2.83;0.43;;;;;;;12.14;98.51;101379.31;5088868;28;20063;-64
2024/03/16 05:57:44;;;;;;;2.75;0.40;;;;;;;12.00;98.57;101386.78;5088391;28;20051;-61
2024/03/16 06:00:15;;;;;;;2.55;0.60;;;;;;;11.96;99.51;101394.06;5088592;28;20051;-60
2024/03/16 06:02:42;;;;;;;3.70;0.50;;;;;;;11.97;100.00;101390.16;5103742;28;20090;-60
2024/03/16 06:05:09;;;;;;;4.32;0.43;;;;;;;11.92;99.13;101395.78;5098413;28;20044;-61
2024/03/16 06:07:37;;;;;;;2.22;0.55;;;;;;;11.79;100.00;101404.88;5087159;28;20169;-61
2024/03/16 06:10:04;;;;;;;2.65;0.60;;;;;;;11.85;100.00;101409.19;5103452;28;20056;-61
2024/03/16 06:12:33;;;;;;;1.85;0.50;;;;;;;11.71;100.00;101425.72;5086612;28;20055;-60
2024/03/16 06:15:00;;;;;;;3.13;0.73;;;;;;;11.08;100.00;101425.38;5088432;28;20511;-61
2024/03/16 06:17:27;;;;;;;3.58;0.63;;;;;;;11.20;100.00;101439.53;5085733;28;20059;-61
2024/03/16 06:19:55;;;;;;;4.15;0.50;;;;;;;11.33;100.00;101433.22;5074690;28;20057;-60
2024/03/16 06:22:22;;;;;;;7.68;1.35;;;;;;;11.32;100.00;101437.13;5087845;28;20052;-61
2024/03/16 06:24:49;;;;;;;2.47;0.60;;;;;;;11.47;100.00;101427.78;5077935;28;20842;-61
2024/03/16 06:27:21;;;;;;;3.22;0.70;;;;;;;11.58;100.00;101431.16;5067652;28;20060;-61
2024/03/16 06:29:52;;;;;;;1.95;0.60;;;;;;;11.69;100.00;101446.47;5067612;28;20415;-61
2024/03/16 06:32:20;;;;;;;3.28;0.63;;;;;;;11.72;100.00;101443.91;5067655;28;20083;-61
2024/03/16 06:34:48;;;;;;;2.55;0.50;;;;;;;11.72;100.00;101452.19;5066319;28;20490;-62
2024/03/16 06:37:17;;;;;;;1.75;0.60;;;;;;;11.70;100.00;101448.91;5083613;28;20055;-60
2024/03/16 06:39:46;;;;;;;2.15;0.60;;;;;;;12.01;99.34;101460.22;5087711;28;20060;-61
2024/03/16 06:42:13;;;;;;;2.38;0.80;;;;;;;12.01;97.96;101457.47;5086145;28;20051;-62
2024/03/16 06:44:40;;;;;;;2.33;0.68;;;;;;;11.89;97.09;101470.94;5085970;28;20134;-62
2024/03/16 06:47:08;;;;;;;4.30;0.85;;;;;;;11.64;98.41;101474.13;5087377;28;20056;-60
2024/03/16 06:49:35;;;;;;;4.00;0.70;;;;;;;11.94;96.09;101477.16;5086401;28;20059;-62
2024/03/16 06:52:03;;;;;;;4.10;0.80;;;;;;;11.80;96.27;101472.75;5087249;28;20051;-63
2024/03/16 06:54:31;;;;;;;2.78;0.80;;;;;;;12.03;95.82;101469.84;5089728;28;20048;-62
2024/03/16 06:56:58;;;;;;;5.32;1.00;;;;;;;11.93;95.96;101480.25;5067281;28;20075;-61
2024/03/16 06:59:26;;;;;;;6.38;0.80;;;;;;;11.91;96.48;101471.44;5066676;28;20045;-60
2024/03/16 07:01:54;;;;;;;4.13;0.95;;;;;;;12.05;95.32;101477.81;5067551;28;20079;-60
2024/03/16 07:04:22;;;;;;;6.22;0.90;;;;;;;12.13;96.00;101468.84;5075921;28;20549;-62
2024/03/16 07:06:52;;;;;;;2.17;0.60;;;;;;;12.28;93.78;101482.34;5087425;28;20056;-60
2024/03/16 07:09:19;;;;;;;3.90;1.05;;;;;;;12.16;93.78;101484.78;5082819;28;20060;-60
2024/03/16 07:11:47;;;;;;;2.97;0.73;;;;;;;12.32;93.87;101484.19;5085690;28;20059;-61
2024/03/16 07:14:15;;;;;;;3.85;0.70;;;;;;;12.17;93.35;101495.53;5085392;28;20036;-61
2024/03/16 07:16:42;;;;;;;3.25;0.93;;;;;;;11.93;94.58;101486.59;5087657;28;20054;-62
2024/03/16 07:19:09;;;;;;;3.60;0.70;;;;;;;12.00;93.98;101498.06;5102957;28;20051;-62
2024/03/16 07:21:37;;;;;;;6.22;0.60;;;;;;;12.11;94.09;101502.28;5085641;28;20048;-61
2024/03/16 07:24:05;;;;;;;5.60;1.30;;;;;;;12.21;93.17;101510.38;5074375;28;20056;-61
2024/03/16 07:26:32;;;;;;;3.95;0.75;;;;;;;12.19;92.98;101506.25;5079702;28;20044;-59
2024/03/16 07:28:59;;;;;;;2.78;0.90;;;;;;;12.25;92.55;101511.41;5087931;28;20062;-64
2024/03/16 07:31:29;;;;;;;3.22;0.98;;;;;;;12.00;94.10;101513.78;5082789;28;20053;-62
2024/03/16 07:33:56;;;;;;;;;;;;;;;12.30;91.99;101513.25;5067713;28;20071;-61
2024/03/16 07:36:28;;;;;;;6.05;1.10;;;;;;;12.29;92.50;101533.72;5070607;28;19928;-62
2024/03/16 07:38:57;;;;;;;5.95;1.10;;;;;;;12.37;91.29;101531.06;5072730;28;20043;-61
2024/03/16 07:41:27;;;;;;;5.25;0.80;;;;;;;12.29;90.23;101533.72;5090412;28;20060;-61
2024/03/16 07:43:54;;;;;;;2.80;0.60;;;;;;;12.32;91.18;101535.84;5091128;28;20067;-62
2024/03/16 07:46:21;;;;;;;4.32;0.95;;;;;;;12.15;91.79;101539.19;5091512;28;20067;-62
2024/03/16 07:48:49;;;;;;;3.13;0.80;;;;;;;12.06;91.99;101541.03;5090936;28;20060;-61
2024/03/16 07:51:17;;;;;;;7.30;1.10;;;;;;;12.13;92.47;101546.16;5090694;28;20063;-61
2024/03/16 07:53:44;;;;;;;4.97;0.73;;;;;;;12.27;91.81;101547.00;5090798;28;20047;-61
2024/03/16 07:56:11;;;;;;;3.85;0.57;;;;;;;12.36;90.52;101550.72;5089218;28;20060;-62
2024/03/16 07:58:39;;;;;;;4.10;0.82;;;;;;;12.52;88.69;101560.31;5088707;28;20087;-63
2024/03/16 08:01:08;;;;;;;5.00;0.85;;;;;;;12.37;89.97;101574.44;5089163;28;20064;-61
2024/03/16 08:03:36;;;;;;;2.45;0.70;;;;;;;12.45;89.86;101569.03;5088763;28;20071;-62
2024/03/16 08:06:07;;;;;;;2.25;0.65;;;;;;;12.33;89.60;101574.22;5071213;28;20056;-61
2024/03/16 08:08:36;;;;;;;3.92;1.20;;;;;;;12.25;90.38;101583.22;5070397;28;20146;-61
2024/03/16 08:11:07;;;;;;;3.15;0.75;;;;;;;12.34;90.08;101575.06;5068787;28;20060;-62
2024/03/16 08:13:34;;;;;;;5.00;0.98;;;;;;;12.57;90.06;101574.03;5070152;28;20059;-63
2024/03/16 08:16:02;;;;;;;4.18;1.20;;;;;;;12.71;88.35;101582.38;5083928;28;20063;-63
2024/03/16 08:18:33;;;;;;;4.40;1.25;;;;;;;12.60;88.75;101590.03;5068009;28;20072;-62
2024/03/16 08:21:01;;;;;;;4.43;1.33;;;;;;;12.55;88.85;101587.38;5070226;28;20059;-61
2024/03/16 08:23:30;;;;;;;3.23;0.87;;;;;;;12.36;89.63;101600.44;5069811;28;20044;-62
2024/03/16 08:26:00;;;;;;;4.32;1.05;;;;;;;12.69;89.65;101598.44;5085860;28;20044;-60
2024/03/16 08:28:28;;;;;;;5.30;1.00;;;;;;;12.29;88.67;101611.84;5090183;28;20051;-63
2024/03/16 08:30:55;;;;;;;6.15;0.93;;;;;;;12.22;91.54;101610.63;5094063;28;20047;-62
2024/03/16 08:33:24;;;;;;;6.38;1.40;;;;;;;12.28;90.82;101615.75;5093668;28;20044;-63
2024/03/16 08:35:52;;;;;;;3.60;1.40;;;;;;;12.35;90.21;101618.13;5093191;28;20048;-61
2024/03/16 08:38:19;;;;;;;5.78;1.10;;;;;;;12.41;89.29;101616.94;5093866;28;20056;-65
2024/03/16 08:40:47;;;;;;;7.28;1.52;;;;;;;12.07;90.36;101625.50;5086754;28;20063;-61
2024/03/16 08:43:14;;;;;;;4.35;1.10;;;;;;;12.33;88.92;101617.59;5083088;28;20056;-60
2024/03/16 08:45:42;;;;;;;4.05;1.20;;;;;;;12.78;86.36;101618.72;5074836;28;20071;-62
2024/03/16 08:48:09;;;;;;;9.70;1.77;;;;;;;12.70;84.06;101634.06;5070863;28;20048;-61
2024/03/16 08:50:37;;;;;;;7.28;1.20;;;;;;;12.91;82.98;101638.06;5073053;28;20044;-61
2024/03/16 08:53:05;;;;;;;6.80;0.98;;;;;;;12.43;79.94;101642.28;5080264;28;20052;-62
2024/03/16 08:55:32;;;;;;;5.68;1.23;;;;;;;12.35;83.14;101645.75;5078508;28;20064;-62
2024/03/16 08:58:00;;;;;;;10.13;1.63;;;;;;;12.65;81.36;101647.16;5089339;28;20056;-62
2024/03/16 09:00:29;;;;;;;4.28;1.02;;;;;;;12.63;79.11;101641.94;5074478;28;20059;-61
2024/03/16 09:02:57;;;;;;;9.50;1.20;;;;;;;12.63;79.05;101643.88;5071242;28;20049;-61
2024/03/16 09:05:25;;;;;;;10.00;1.75;;;;;;;12.53;78.80;101661.47;5087242;28;20052;-63
2024/03/16 09:07:53;;;;;;;4.75;1.20;;;;;;;12.63;78.02;101658.50;5088010;28;20442;-61
2024/03/16 09:10:22;;;;;;;5.93;1.30;;;;;;;12.89;77.26;101651.38;5080996;28;20055;-61
2024/03/16 09:12:50;;;;;;;6.55;1.40;;;;;;;12.97;76.38;101647.88;5101848;28;20036;-62
2024/03/16 09:15:17;;;;;;;7.90;1.45;;;;;;;13.13;76.44;101648.44;5080185;28;20071;-62
2024/03/16 09:17:44;;;;;;;8.77;1.48;;;;;;;13.02;76.50;101658.09;5086613;28;20055;-61
2024/03/16 09:20:13;;;;;;;11.13;1.58;;;;;;;13.18;74.83;101670.50;5085590;28;20059;-61
2024/03/16 09:22:42;;;;;;;5.65;1.38;;;;;;;12.75;75.59;101663.53;5088016;28;20055;-60
2024/03/16 09:25:09;;;;;;;6.68;1.42;;;;;;;12.11;77.78;101665.22;5082370;28;20083;-62
2024/03/16 09:27:36;;;;;;;7.95;1.63;;;;;;;12.15;79.04;101673.72;5079124;28;20043;-62
2024/03/16 09:30:16;;;;;;;6.47;1.63;;;;;;;12.54;80.16;101684.38;5084283;28;20052;-61
2024/03/16 09:32:44;;;;;;;6.97;1.65;;;;;;;12.86;78.04;101670.53;5084394;28;20048;-61
2024/03/16 09:35:11;;;;;;;8.95;1.73;;;;;;;12.88;75.93;101674.66;5081635;28;20048;-61
2024/03/16 09:37:38;;;;;;;5.43;1.15;;;;;;;12.91;75.72;101670.44;5082972;28;20163;-60
2024/03/16 09:40:13;;;;;;;7.25;1.42;;;;;;;12.73;76.52;101680.44;5086393;28;20054;-61
2024/03/16 09:42:41;;;;;;;5.68;1.38;;;;;;;12.94;76.37;101672.56;5074127;28;20052;-62
2024/03/16 09:45:18;;;;;;;6.82;1.40;;;;;;;13.05;73.65;101672.13;5081251;28;20070;-58
2024/03/16 09:47:46;;;;;;;6.05;1.45;;;;;;;13.11;72.23;101667.31;5075759;28;20052;-61
2024/03/16 09:50:16;;;;;;;6.70;1.27;;;;;;;12.95;72.78;101671.47;5078230;28;20044;-62
2024/03/16 09:52:48;;;;;;;8.18;1.90;;;;;;;12.93;72.81;101670.94;5070413;28;20048;-61
2024/03/16 09:55:22;;;;;;;8.18;1.42;;;;;;;12.50;73.52;101683.34;5067367;28;20048;-62
2024/03/16 09:57:51;;;;;;;5.82;1.52;;;;;;;13.07;72.54;101672.63;5081706;28;20063;-63
2024/03/16 10:00:17;;;;;;;6.13;1.65;;;;;;;12.88;71.73;101673.81;5053085;28;20067;-61
2024/03/16 10:02:44;;;;;;;7.63;1.48;;;;;;;12.77;72.82;101661.28;5100557;28;20064;-61
2024/03/16 10:05:13;;;;;;;5.95;1.20;;;;;;;12.65;71.97;101675.63;5062081;28;20051;-62
2024/03/16 10:07:40;;;;;;;9.82;1.73;;;;;;;12.93;73.63;101682.84;5059029;28;20051;-62
2024/03/16 10:10:10;;;;;;;5.97;1.38;;;;;;;13.11;70.29;101681.94;5094624;28;20079;-62
2024/03/16 10:12:40;;;;;;;;;;;;;;;13.08;69.88;101684.50;5070062;28;20054;-62
2024/03/16 10:17:43;;;;;;;8.88;1.20;;;;;;;13.07;69.71;101700.31;5067345;28;20079;-61
2024/03/16 10:20:18;;;;;;;6.82;1.20;;;;;;;13.33;68.36;101693.13;5089877;28;20047;-60
2024/03/16 10:22:46;;;;;;;6.13;1.30;;;;;;;13.36;67.58;101698.03;5085702;28;20056;-62
2024/03/16 10:25:13;;;;;;;5.22;1.40;;;;;;;13.49;67.47;101688.88;5086610;28;20043;-60
2024/03/16 10:27:40;;;;;;;7.50;1.60;;;;;;;13.90;66.18;101688.81;5080489;28;20044;-66
2024/03/16 10:30:11;;;;;;;5.05;1.48;;;;;;;14.16;65.82;101687.09;5085236;28;20041;-62
2024/03/16 10:32:49;;;;;;;9.00;1.55;;;;;;;13.93;64.74;101695.69;5085661;28;20056;-63
2024/03/16 10:35:20;;;;;;;7.20;1.50;;;;;;;13.71;65.77;101693.69;5065393;28;20057;-61
2024/03/16 10:37:49;;;;;;;7.25;1.63;;;;;;;14.06;65.69;101692.06;5066019;28;20044;-63
2024/03/16 10:40:21;;;;;;;7.53;1.50;;;;;;;14.29;63.99;101691.81;5066640;28;20048;-61
2024/03/16 10:42:50;;;;;;;8.95;1.30;;;;;;;14.58;62.03;101691.34;5073791;28;20060;-62
2024/03/16 10:45:20;;;;;;;6.60;1.42;;;;;;;14.41;61.28;101697.59;5070427;28;20049;-62
2024/03/16 10:47:54;;;;;;;6.38;1.33;;;;;;;14.31;61.89;101680.41;5049360;28;20060;-62
2024/03/16 10:50:24;;;;;;;5.50;1.30;;;;;;;14.27;61.42;101685.75;5079498;28;20131;-62
2024/03/16 10:52:52;;;;;;;7.28;1.40;;;;;;;13.99;61.29;101697.22;5071229;28;20055;-61
2024/03/16 10:55:24;;;;;;;4.55;1.20;;;;;;;13.80;60.60;101704.84;5067942;28;20403;-61
2024/03/16 10:57:54;;;;;;;5.15;1.20;;;;;;;13.52;61.66;101699.38;5066390;28;20273;-62
2024/03/16 11:00:21;;;;;;;3.80;1.08;;;;;;;13.54;61.38;101702.66;5066455;28;20056;-61
2024/03/16 11:02:50;;;;;;;6.32;1.25;;;;;;;13.25;63.65;101699.38;5083628;28;20058;-62
2024/03/16 11:05:36;;;;;;;9.35;1.70;;;;;;;13.34;64.35;101703.06;5080047;28;20094;-62
2024/03/16 11:08:14;;;;;;;7.13;1.45;;;;;;;13.22;62.34;101702.75;5073021;28;20051;-62
2024/03/16 11:10:42;;;;;;;8.95;1.48;;;;;;;13.64;63.09;101709.91;5072271;28;20056;-62
2024/03/16 11:13:16;;;;;;;6.28;1.42;;;;;;;14.15;61.86;101715.94;5065982;28;20064;-62
2024/03/16 11:15:49;;;;;;;9.57;1.77;;;;;;;14.04;60.87;101700.69;5072090;28;20059;-63
2024/03/16 11:18:21;;;;;;;6.22;1.30;;;;;;;14.49;60.55;101698.78;5073085;28;20059;-64
2024/03/16 11:20:56;;;;;;;7.25;1.30;;;;;;;14.76;58.94;101701.41;5074489;28;20057;-62
2024/03/16 11:23:27;;;;;;;8.43;1.20;;;;;;;15.02;57.17;101691.28;5061652;28;20056;-61
2024/03/16 11:25:58;;;;;;;9.00;1.70;;;;;;;15.11;55.26;101689.34;5075394;28;20053;-63
2024/03/16 11:28:25;;;;;;;10.10;1.40;;;;;;;15.03;56.62;101701.22;5080203;28;20515;-62
2024/03/16 11:30:51;;;;;;;6.50;1.50;;;;;;;15.02;56.81;101701.53;5082437;28;20048;-64